sensor_id;sensor_type;location;lat;lon;timestamp;P1;durP1;ratioP1;P2;durP2;ratioP2
53971;SDS011;40530;53.062;6.078;2024-01-30T00:01:55;30.45;;;19.67;;
53971;SDS011;40530;53.062;6.078;2024-01-30T00:04:21;26.65;;;18.25;;
53971;SDS011;40530;53.062;6.078;2024-01-30T00:06:47;24.20;;;17.77;;
53971;SDS011;40530;53.062;6.078;2024-01-30T00:09:13;26.38;;;17.77;;
53971;SDS011;40530;53.062;6.078;2024-01-30T00:11:40;33.10;;;19.08;;
53971;SDS011;40530;53.062;6.078;2024-01-30T00:14:06;26.95;;;18.30;;
53971;SDS011;40530;53.062;6.078;2024-01-30T00:16:32;23.27;;;17.15;;
53971;SDS011;40530;53.062;6.078;2024-01-30T00:18:58;23.60;;;17.58;;
53971;SDS011;40530;53.062;6.078;2024-01-30T00:21:24;28.65;;;17.30;;
53971;SDS011;40530;53.062;6.078;2024-01-30T00:23:50;23.65;;;16.58;;
53971;SDS011;40530;53.062;6.078;2024-01-30T00:26:16;28.10;;;18.70;;
53971;SDS011;40530;53.062;6.078;2024-01-30T00:28:43;25.85;;;17.27;;
53971;SDS011;40530;53.062;6.078;2024-01-30T00:31:09;26.55;;;19.00;;
53971;SDS011;40530;53.062;6.078;2024-01-30T00:33:38;25.02;;;17.77;;
53971;SDS011;40530;53.062;6.078;2024-01-30T00:36:05;29.20;;;17.83;;
53971;SDS011;40530;53.062;6.078;2024-01-30T00:38:31;24.30;;;17.58;;
53971;SDS011;40530;53.062;6.078;2024-01-30T00:40:57;26.40;;;18.70;;
53971;SDS011;40530;53.062;6.078;2024-01-30T00:43:24;35.40;;;18.75;;
53971;SDS011;40530;53.062;6.078;2024-01-30T00:45:50;24.27;;;18.23;;
53971;SDS011;40530;53.062;6.078;2024-01-30T00:48:19;22.25;;;16.52;;
53971;SDS011;40530;53.062;6.078;2024-01-30T00:50:45;23.92;;;16.60;;
53971;SDS011;40530;53.062;6.078;2024-01-30T00:53:12;26.50;;;16.80;;
53971;SDS011;40530;53.062;6.078;2024-01-30T00:55:38;32.13;;;19.60;;
53971;SDS011;40530;53.062;6.078;2024-01-30T00:58:04;30.02;;;18.73;;
53971;SDS011;40530;53.062;6.078;2024-01-30T01:00:30;27.27;;;18.00;;
53971;SDS011;40530;53.062;6.078;2024-01-30T01:02:57;26.23;;;20.23;;
53971;SDS011;40530;53.062;6.078;2024-01-30T01:05:23;27.98;;;18.15;;
53971;SDS011;40530;53.062;6.078;2024-01-30T01:07:49;30.67;;;19.38;;
53971;SDS011;40530;53.062;6.078;2024-01-30T01:10:16;26.83;;;19.23;;
53971;SDS011;40530;53.062;6.078;2024-01-30T01:12:42;26.38;;;19.42;;
53971;SDS011;40530;53.062;6.078;2024-01-30T01:15:08;28.60;;;18.02;;
53971;SDS011;40530;53.062;6.078;2024-01-30T01:17:35;22.90;;;17.35;;
53971;SDS011;40530;53.062;6.078;2024-01-30T01:20:01;29.13;;;17.55;;
53971;SDS011;40530;53.062;6.078;2024-01-30T01:22:28;24.23;;;17.38;;
53971;SDS011;40530;53.062;6.078;2024-01-30T01:24:54;28.48;;;18.27;;
53971;SDS011;40530;53.062;6.078;2024-01-30T01:27:20;27.63;;;18.50;;
53971;SDS011;40530;53.062;6.078;2024-01-30T01:29:46;25.17;;;18.02;;
53971;SDS011;40530;53.062;6.078;2024-01-30T01:32:12;26.35;;;18.65;;
53971;SDS011;40530;53.062;6.078;2024-01-30T01:34:38;27.73;;;18.30;;
53971;SDS011;40530;53.062;6.078;2024-01-30T01:37:04;24.58;;;18.65;;
53971;SDS011;40530;53.062;6.078;2024-01-30T01:39:30;25.73;;;17.73;;
53971;SDS011;40530;53.062;6.078;2024-01-30T01:41:56;27.20;;;18.58;;
53971;SDS011;40530;53.062;6.078;2024-01-30T01:44:22;29.25;;;16.58;;
53971;SDS011;40530;53.062;6.078;2024-01-30T01:46:48;23.80;;;17.40;;
53971;SDS011;40530;53.062;6.078;2024-01-30T01:49:15;26.38;;;18.38;;
53971;SDS011;40530;53.062;6.078;2024-01-30T01:51:41;24.73;;;17.10;;
53971;SDS011;40530;53.062;6.078;2024-01-30T01:54:09;28.40;;;17.95;;
53971;SDS011;40530;53.062;6.078;2024-01-30T01:56:36;27.60;;;17.58;;
53971;SDS011;40530;53.062;6.078;2024-01-30T01:59:06;26.80;;;18.38;;
53971;SDS011;40530;53.062;6.078;2024-01-30T02:01:33;29.38;;;17.88;;
53971;SDS011;40530;53.062;6.078;2024-01-30T02:03:59;30.58;;;17.23;;
53971;SDS011;40530;53.062;6.078;2024-01-30T02:06:26;26.52;;;19.35;;
53971;SDS011;40530;53.062;6.078;2024-01-30T02:08:52;24.40;;;17.27;;
53971;SDS011;40530;53.062;6.078;2024-01-30T02:11:19;26.95;;;18.52;;
53971;SDS011;40530;53.062;6.078;2024-01-30T02:13:45;24.48;;;18.08;;
53971;SDS011;40530;53.062;6.078;2024-01-30T02:16:11;33.13;;;18.83;;
53971;SDS011;40530;53.062;6.078;2024-01-30T02:18:37;28.25;;;17.52;;
53971;SDS011;40530;53.062;6.078;2024-01-30T02:21:08;30.38;;;17.45;;
53971;SDS011;40530;53.062;6.078;2024-01-30T02:23:34;25.60;;;19.23;;
53971;SDS011;40530;53.062;6.078;2024-01-30T02:26:00;29.00;;;18.45;;
53971;SDS011;40530;53.062;6.078;2024-01-30T02:28:26;31.48;;;19.15;;
53971;SDS011;40530;53.062;6.078;2024-01-30T02:30:52;24.23;;;16.92;;
53971;SDS011;40530;53.062;6.078;2024-01-30T02:33:19;22.83;;;17.77;;
53971;SDS011;40530;53.062;6.078;2024-01-30T02:35:47;25.50;;;16.90;;
53971;SDS011;40530;53.062;6.078;2024-01-30T02:38:13;23.23;;;17.20;;
53971;SDS011;40530;53.062;6.078;2024-01-30T02:40:39;25.65;;;18.67;;
53971;SDS011;40530;53.062;6.078;2024-01-30T02:43:05;24.75;;;17.45;;
53971;SDS011;40530;53.062;6.078;2024-01-30T02:45:31;23.05;;;16.95;;
53971;SDS011;40530;53.062;6.078;2024-01-30T02:47:57;25.85;;;17.45;;
53971;SDS011;40530;53.062;6.078;2024-01-30T02:50:23;26.35;;;17.52;;
53971;SDS011;40530;53.062;6.078;2024-01-30T02:52:49;25.67;;;17.23;;
53971;SDS011;40530;53.062;6.078;2024-01-30T02:55:15;24.23;;;17.33;;
53971;SDS011;40530;53.062;6.078;2024-01-30T02:57:44;26.30;;;18.02;;
53971;SDS011;40530;53.062;6.078;2024-01-30T03:00:10;54.08;;;35.50;;
53971;SDS011;40530;53.062;6.078;2024-01-30T03:02:36;54.60;;;31.65;;
53971;SDS011;40530;53.062;6.078;2024-01-30T03:05:03;25.38;;;18.23;;
53971;SDS011;40530;53.062;6.078;2024-01-30T03:07:29;26.08;;;17.05;;
53971;SDS011;40530;53.062;6.078;2024-01-30T03:09:55;23.90;;;17.55;;
53971;SDS011;40530;53.062;6.078;2024-01-30T03:12:21;22.30;;;17.17;;
53971;SDS011;40530;53.062;6.078;2024-01-30T03:14:48;24.08;;;16.58;;
53971;SDS011;40530;53.062;6.078;2024-01-30T03:17:14;23.15;;;17.38;;
53971;SDS011;40530;53.062;6.078;2024-01-30T03:19:40;21.30;;;15.57;;
53971;SDS011;40530;53.062;6.078;2024-01-30T03:22:06;24.90;;;16.90;;
53971;SDS011;40530;53.062;6.078;2024-01-30T03:24:32;30.35;;;18.05;;
53971;SDS011;40530;53.062;6.078;2024-01-30T03:26:58;26.27;;;17.35;;
53971;SDS011;40530;53.062;6.078;2024-01-30T03:29:24;24.17;;;16.30;;
53971;SDS011;40530;53.062;6.078;2024-01-30T03:31:50;24.50;;;16.17;;
53971;SDS011;40530;53.062;6.078;2024-01-30T03:34:16;27.08;;;17.27;;
53971;SDS011;40530;53.062;6.078;2024-01-30T03:36:42;25.15;;;17.08;;
53971;SDS011;40530;53.062;6.078;2024-01-30T03:39:08;24.48;;;17.70;;
53971;SDS011;40530;53.062;6.078;2024-01-30T03:41:34;25.38;;;17.02;;
53971;SDS011;40530;53.062;6.078;2024-01-30T03:44:01;23.85;;;16.75;;
53971;SDS011;40530;53.062;6.078;2024-01-30T03:46:27;27.50;;;17.00;;
53971;SDS011;40530;53.062;6.078;2024-01-30T03:48:53;24.42;;;15.88;;
53971;SDS011;40530;53.062;6.078;2024-01-30T03:51:19;21.83;;;15.40;;
53971;SDS011;40530;53.062;6.078;2024-01-30T03:53:45;23.88;;;15.48;;
53971;SDS011;40530;53.062;6.078;2024-01-30T03:56:11;45.60;;;24.13;;
53971;SDS011;40530;53.062;6.078;2024-01-30T03:58:40;27.20;;;18.67;;
53971;SDS011;40530;53.062;6.078;2024-01-30T04:01:07;23.17;;;15.90;;
53971;SDS011;40530;53.062;6.078;2024-01-30T04:03:33;23.60;;;15.55;;
53971;SDS011;40530;53.062;6.078;2024-01-30T04:05:59;24.80;;;16.08;;
53971;SDS011;40530;53.062;6.078;2024-01-30T04:08:25;19.90;;;14.90;;
53971;SDS011;40530;53.062;6.078;2024-01-30T04:10:51;23.50;;;15.93;;
53971;SDS011;40530;53.062;6.078;2024-01-30T04:13:17;20.50;;;14.10;;
53971;SDS011;40530;53.062;6.078;2024-01-30T04:15:43;22.58;;;15.48;;
53971;SDS011;40530;53.062;6.078;2024-01-30T04:18:09;20.70;;;15.30;;
53971;SDS011;40530;53.062;6.078;2024-01-30T04:20:35;21.77;;;15.15;;
53971;SDS011;40530;53.062;6.078;2024-01-30T04:23:01;20.70;;;15.88;;
53971;SDS011;40530;53.062;6.078;2024-01-30T04:25:27;20.25;;;14.23;;
53971;SDS011;40530;53.062;6.078;2024-01-30T04:27:53;20.55;;;14.68;;
53971;SDS011;40530;53.062;6.078;2024-01-30T04:30:20;22.00;;;14.50;;
53971;SDS011;40530;53.062;6.078;2024-01-30T04:32:46;20.33;;;14.40;;
53971;SDS011;40530;53.062;6.078;2024-01-30T04:35:12;23.55;;;14.65;;
53971;SDS011;40530;53.062;6.078;2024-01-30T04:37:38;19.13;;;12.85;;
53971;SDS011;40530;53.062;6.078;2024-01-30T04:40:04;20.48;;;14.55;;
53971;SDS011;40530;53.062;6.078;2024-01-30T04:42:30;21.13;;;13.63;;
53971;SDS011;40530;53.062;6.078;2024-01-30T04:44:56;24.65;;;14.48;;
53971;SDS011;40530;53.062;6.078;2024-01-30T04:47:22;23.75;;;13.48;;
53971;SDS011;40530;53.062;6.078;2024-01-30T04:49:48;20.50;;;15.27;;
53971;SDS011;40530;53.062;6.078;2024-01-30T04:52:15;21.45;;;13.40;;
53971;SDS011;40530;53.062;6.078;2024-01-30T04:54:41;22.23;;;14.10;;
53971;SDS011;40530;53.062;6.078;2024-01-30T04:57:08;17.27;;;13.40;;
53971;SDS011;40530;53.062;6.078;2024-01-30T04:59:34;19.08;;;13.18;;
53971;SDS011;40530;53.062;6.078;2024-01-30T05:02:01;21.88;;;12.85;;
53971;SDS011;40530;53.062;6.078;2024-01-30T05:04:27;18.38;;;13.30;;
53971;SDS011;40530;53.062;6.078;2024-01-30T05:06:53;16.98;;;11.85;;
53971;SDS011;40530;53.062;6.078;2024-01-30T05:09:19;16.13;;;12.00;;
53971;SDS011;40530;53.062;6.078;2024-01-30T05:11:46;23.35;;;12.45;;
53971;SDS011;40530;53.062;6.078;2024-01-30T05:14:12;17.15;;;12.15;;
53971;SDS011;40530;53.062;6.078;2024-01-30T05:16:40;18.10;;;12.00;;
53971;SDS011;40530;53.062;6.078;2024-01-30T05:19:06;17.48;;;12.40;;
53971;SDS011;40530;53.062;6.078;2024-01-30T05:21:32;17.27;;;12.38;;
53971;SDS011;40530;53.062;6.078;2024-01-30T05:23:59;21.17;;;12.27;;
53971;SDS011;40530;53.062;6.078;2024-01-30T05:26:25;19.95;;;13.02;;
53971;SDS011;40530;53.062;6.078;2024-01-30T05:28:51;17.48;;;12.85;;
53971;SDS011;40530;53.062;6.078;2024-01-30T05:31:17;20.17;;;11.45;;
53971;SDS011;40530;53.062;6.078;2024-01-30T05:33:44;16.65;;;11.80;;
53971;SDS011;40530;53.062;6.078;2024-01-30T05:36:13;18.67;;;12.80;;
53971;SDS011;40530;53.062;6.078;2024-01-30T05:38:39;20.13;;;12.65;;
53971;SDS011;40530;53.062;6.078;2024-01-30T05:41:05;18.08;;;12.73;;
53971;SDS011;40530;53.062;6.078;2024-01-30T05:43:31;19.13;;;12.18;;
53971;SDS011;40530;53.062;6.078;2024-01-30T05:45:57;19.52;;;12.60;;
53971;SDS011;40530;53.062;6.078;2024-01-30T05:48:23;19.08;;;13.30;;
53971;SDS011;40530;53.062;6.078;2024-01-30T05:50:49;17.95;;;12.18;;
53971;SDS011;40530;53.062;6.078;2024-01-30T05:53:15;20.13;;;12.98;;
53971;SDS011;40530;53.062;6.078;2024-01-30T05:55:41;17.80;;;12.38;;
53971;SDS011;40530;53.062;6.078;2024-01-30T05:58:07;18.20;;;11.73;;
53971;SDS011;40530;53.062;6.078;2024-01-30T06:00:33;24.52;;;13.93;;
53971;SDS011;40530;53.062;6.078;2024-01-30T06:02:59;22.20;;;15.63;;
53971;SDS011;40530;53.062;6.078;2024-01-30T06:05:25;18.90;;;12.27;;
53971;SDS011;40530;53.062;6.078;2024-01-30T06:07:51;26.38;;;17.58;;
53971;SDS011;40530;53.062;6.078;2024-01-30T06:10:17;21.52;;;13.57;;
53971;SDS011;40530;53.062;6.078;2024-01-30T06:12:43;23.52;;;16.63;;
53971;SDS011;40530;53.062;6.078;2024-01-30T06:15:09;19.17;;;13.13;;
53971;SDS011;40530;53.062;6.078;2024-01-30T06:17:37;23.40;;;14.65;;
53971;SDS011;40530;53.062;6.078;2024-01-30T06:20:03;17.65;;;13.20;;
53971;SDS011;40530;53.062;6.078;2024-01-30T06:22:30;18.58;;;13.38;;
53971;SDS011;40530;53.062;6.078;2024-01-30T06:24:56;15.43;;;12.10;;
53971;SDS011;40530;53.062;6.078;2024-01-30T06:27:22;21.60;;;12.77;;
53971;SDS011;40530;53.062;6.078;2024-01-30T06:29:48;20.52;;;13.43;;
53971;SDS011;40530;53.062;6.078;2024-01-30T06:32:14;20.85;;;12.70;;
53971;SDS011;40530;53.062;6.078;2024-01-30T06:34:40;21.13;;;11.93;;
53971;SDS011;40530;53.062;6.078;2024-01-30T06:37:09;19.15;;;12.10;;
53971;SDS011;40530;53.062;6.078;2024-01-30T06:39:35;17.75;;;12.30;;
53971;SDS011;40530;53.062;6.078;2024-01-30T06:42:01;16.60;;;12.52;;
53971;SDS011;40530;53.062;6.078;2024-01-30T06:44:27;17.83;;;11.07;;
53971;SDS011;40530;53.062;6.078;2024-01-30T06:46:53;20.73;;;12.18;;
53971;SDS011;40530;53.062;6.078;2024-01-30T06:49:19;15.55;;;11.48;;
53971;SDS011;40530;53.062;6.078;2024-01-30T06:51:47;17.75;;;11.70;;
53971;SDS011;40530;53.062;6.078;2024-01-30T06:54:13;15.77;;;11.20;;
53971;SDS011;40530;53.062;6.078;2024-01-30T06:56:39;18.50;;;12.07;;
53971;SDS011;40530;53.062;6.078;2024-01-30T06:59:05;18.20;;;11.20;;
53971;SDS011;40530;53.062;6.078;2024-01-30T07:01:31;17.13;;;11.45;;
53971;SDS011;40530;53.062;6.078;2024-01-30T07:03:57;17.52;;;11.63;;
53971;SDS011;40530;53.062;6.078;2024-01-30T07:06:24;18.10;;;11.60;;
53971;SDS011;40530;53.062;6.078;2024-01-30T07:08:50;16.35;;;11.38;;
53971;SDS011;40530;53.062;6.078;2024-01-30T07:11:19;14.45;;;11.60;;
53971;SDS011;40530;53.062;6.078;2024-01-30T07:16:14;16.92;;;11.27;;
53971;SDS011;40530;53.062;6.078;2024-01-30T07:18:40;16.05;;;10.40;;
53971;SDS011;40530;53.062;6.078;2024-01-30T07:21:07;16.95;;;11.35;;
53971;SDS011;40530;53.062;6.078;2024-01-30T07:23:33;14.15;;;10.98;;
53971;SDS011;40530;53.062;6.078;2024-01-30T07:26:00;21.73;;;11.25;;
53971;SDS011;40530;53.062;6.078;2024-01-30T07:28:26;17.00;;;9.98;;
53971;SDS011;40530;53.062;6.078;2024-01-30T07:30:52;23.92;;;11.07;;
53971;SDS011;40530;53.062;6.078;2024-01-30T07:33:18;13.35;;;10.45;;
53971;SDS011;40530;53.062;6.078;2024-01-30T07:35:45;16.83;;;11.35;;
53971;SDS011;40530;53.062;6.078;2024-01-30T07:38:11;18.25;;;10.27;;
53971;SDS011;40530;53.062;6.078;2024-01-30T07:40:37;16.02;;;9.55;;
53971;SDS011;40530;53.062;6.078;2024-01-30T07:43:03;15.13;;;10.30;;
53971;SDS011;40530;53.062;6.078;2024-01-30T07:45:29;20.20;;;10.75;;
53971;SDS011;40530;53.062;6.078;2024-01-30T07:47:58;21.48;;;11.20;;
53971;SDS011;40530;53.062;6.078;2024-01-30T07:50:27;16.70;;;11.38;;
53971;SDS011;40530;53.062;6.078;2024-01-30T07:52:53;20.88;;;11.93;;
53971;SDS011;40530;53.062;6.078;2024-01-30T07:55:20;19.42;;;12.10;;
53971;SDS011;40530;53.062;6.078;2024-01-30T07:57:49;17.17;;;9.65;;
53971;SDS011;40530;53.062;6.078;2024-01-30T08:00:16;25.27;;;11.85;;
53971;SDS011;40530;53.062;6.078;2024-01-30T08:02:42;20.60;;;11.63;;
53971;SDS011;40530;53.062;6.078;2024-01-30T08:05:08;12.93;;;10.00;;
53971;SDS011;40530;53.062;6.078;2024-01-30T08:07:36;16.23;;;10.65;;
53971;SDS011;40530;53.062;6.078;2024-01-30T08:10:02;18.17;;;11.10;;
53971;SDS011;40530;53.062;6.078;2024-01-30T08:12:28;16.63;;;10.65;;
53971;SDS011;40530;53.062;6.078;2024-01-30T08:14:54;15.73;;;11.63;;
53971;SDS011;40530;53.062;6.078;2024-01-30T08:17:20;36.60;;;21.17;;
53971;SDS011;40530;53.062;6.078;2024-01-30T08:19:46;17.42;;;11.25;;
53971;SDS011;40530;53.062;6.078;2024-01-30T08:22:13;14.88;;;11.27;;
53971;SDS011;40530;53.062;6.078;2024-01-30T08:24:39;19.88;;;11.23;;
53971;SDS011;40530;53.062;6.078;2024-01-30T08:27:06;16.17;;;9.88;;
53971;SDS011;40530;53.062;6.078;2024-01-30T08:29:34;19.33;;;10.90;;
53971;SDS011;40530;53.062;6.078;2024-01-30T08:32:00;13.20;;;10.07;;
53971;SDS011;40530;53.062;6.078;2024-01-30T08:34:27;25.48;;;11.43;;
53971;SDS011;40530;53.062;6.078;2024-01-30T08:36:53;14.07;;;10.18;;
53971;SDS011;40530;53.062;6.078;2024-01-30T08:39:19;19.17;;;10.52;;
53971;SDS011;40530;53.062;6.078;2024-01-30T08:41:45;17.17;;;9.65;;
53971;SDS011;40530;53.062;6.078;2024-01-30T08:44:11;18.48;;;10.82;;
53971;SDS011;40530;53.062;6.078;2024-01-30T08:46:37;13.88;;;10.38;;
53971;SDS011;40530;53.062;6.078;2024-01-30T08:49:03;15.35;;;10.70;;
53971;SDS011;40530;53.062;6.078;2024-01-30T08:51:30;17.52;;;10.77;;
53971;SDS011;40530;53.062;6.078;2024-01-30T08:53:56;18.58;;;11.15;;
53971;SDS011;40530;53.062;6.078;2024-01-30T08:56:22;15.07;;;10.82;;
53971;SDS011;40530;53.062;6.078;2024-01-30T08:58:48;16.20;;;10.50;;
53971;SDS011;40530;53.062;6.078;2024-01-30T09:01:14;55.42;;;35.53;;
53971;SDS011;40530;53.062;6.078;2024-01-30T09:03:40;25.95;;;14.43;;
53971;SDS011;40530;53.062;6.078;2024-01-30T09:06:08;19.00;;;10.90;;
53971;SDS011;40530;53.062;6.078;2024-01-30T09:08:35;15.05;;;11.15;;
53971;SDS011;40530;53.062;6.078;2024-01-30T09:11:02;18.13;;;10.35;;
53971;SDS011;40530;53.062;6.078;2024-01-30T09:13:30;15.65;;;10.55;;
53971;SDS011;40530;53.062;6.078;2024-01-30T09:15:56;18.25;;;11.70;;
53971;SDS011;40530;53.062;6.078;2024-01-30T09:18:22;20.73;;;12.52;;
53971;SDS011;40530;53.062;6.078;2024-01-30T09:20:48;16.95;;;10.73;;
53971;SDS011;40530;53.062;6.078;2024-01-30T09:23:14;21.55;;;11.77;;
53971;SDS011;40530;53.062;6.078;2024-01-30T09:25:40;20.48;;;12.93;;
53971;SDS011;40530;53.062;6.078;2024-01-30T09:28:06;28.17;;;14.18;;
53971;SDS011;40530;53.062;6.078;2024-01-30T09:30:32;21.73;;;11.32;;
53971;SDS011;40530;53.062;6.078;2024-01-30T09:32:58;24.13;;;12.07;;
53971;SDS011;40530;53.062;6.078;2024-01-30T09:35:24;19.88;;;11.73;;
53971;SDS011;40530;53.062;6.078;2024-01-30T09:37:50;18.65;;;10.73;;
53971;SDS011;40530;53.062;6.078;2024-01-30T09:40:17;22.45;;;11.27;;
53971;SDS011;40530;53.062;6.078;2024-01-30T09:42:46;24.15;;;10.60;;
53971;SDS011;40530;53.062;6.078;2024-01-30T09:45:15;20.45;;;11.23;;
53971;SDS011;40530;53.062;6.078;2024-01-30T09:47:43;19.77;;;11.45;;
53971;SDS011;40530;53.062;6.078;2024-01-30T09:50:10;20.92;;;10.93;;
53971;SDS011;40530;53.062;6.078;2024-01-30T09:52:36;33.47;;;19.00;;
53971;SDS011;40530;53.062;6.078;2024-01-30T09:55:02;16.27;;;10.75;;
53971;SDS011;40530;53.062;6.078;2024-01-30T09:57:29;17.17;;;10.88;;
53971;SDS011;40530;53.062;6.078;2024-01-30T09:59:55;23.70;;;12.75;;
53971;SDS011;40530;53.062;6.078;2024-01-30T10:02:21;15.65;;;10.77;;
53971;SDS011;40530;53.062;6.078;2024-01-30T10:04:50;22.13;;;11.25;;
53971;SDS011;40530;53.062;6.078;2024-01-30T10:07:17;24.55;;;11.25;;
53971;SDS011;40530;53.062;6.078;2024-01-30T10:09:43;22.17;;;12.23;;
53971;SDS011;40530;53.062;6.078;2024-01-30T10:12:09;25.23;;;11.77;;
53971;SDS011;40530;53.062;6.078;2024-01-30T10:14:39;20.25;;;11.95;;
53971;SDS011;40530;53.062;6.078;2024-01-30T10:17:07;25.83;;;11.02;;
53971;SDS011;40530;53.062;6.078;2024-01-30T10:19:33;21.40;;;11.18;;
53971;SDS011;40530;53.062;6.078;2024-01-30T10:22:02;22.85;;;11.05;;
53971;SDS011;40530;53.062;6.078;2024-01-30T10:24:29;16.13;;;11.07;;
53971;SDS011;40530;53.062;6.078;2024-01-30T10:26:55;18.88;;;11.07;;
53971;SDS011;40530;53.062;6.078;2024-01-30T10:29:21;18.92;;;10.02;;
53971;SDS011;40530;53.062;6.078;2024-01-30T10:32:00;20.58;;;9.90;;
53971;SDS011;40530;53.062;6.078;2024-01-30T10:34:26;15.98;;;9.57;;
53971;SDS011;40530;53.062;6.078;2024-01-30T10:39:31;18.23;;;8.50;;
53971;SDS011;40530;53.062;6.078;2024-01-30T10:41:59;16.42;;;8.35;;
53971;SDS011;40530;53.062;6.078;2024-01-30T10:44:28;26.13;;;14.48;;
53971;SDS011;40530;53.062;6.078;2024-01-30T10:46:56;19.10;;;8.40;;
53971;SDS011;40530;53.062;6.078;2024-01-30T10:49:26;16.35;;;7.45;;
53971;SDS011;40530;53.062;6.078;2024-01-30T10:51:52;17.27;;;7.45;;
53971;SDS011;40530;53.062;6.078;2024-01-30T10:54:19;14.88;;;6.88;;
53971;SDS011;40530;53.062;6.078;2024-01-30T10:56:45;18.35;;;7.78;;
53971;SDS011;40530;53.062;6.078;2024-01-30T10:59:12;20.60;;;7.80;;
53971;SDS011;40530;53.062;6.078;2024-01-30T11:01:38;19.70;;;7.72;;
53971;SDS011;40530;53.062;6.078;2024-01-30T11:04:04;14.32;;;7.55;;
53971;SDS011;40530;53.062;6.078;2024-01-30T11:06:32;13.82;;;6.30;;
53971;SDS011;40530;53.062;6.078;2024-01-30T11:09:09;16.67;;;6.30;;
53971;SDS011;40530;53.062;6.078;2024-01-30T11:14:15;23.35;;;5.63;;
53971;SDS011;40530;53.062;6.078;2024-01-30T11:16:41;8.57;;;4.00;;
53971;SDS011;40530;53.062;6.078;2024-01-30T11:19:10;11.68;;;3.55;;
53971;SDS011;40530;53.062;6.078;2024-01-30T11:21:41;11.68;;;4.88;;
53971;SDS011;40530;53.062;6.078;2024-01-30T11:24:07;12.00;;;3.35;;
53971;SDS011;40530;53.062;6.078;2024-01-30T11:26:36;9.82;;;2.97;;
53971;SDS011;40530;53.062;6.078;2024-01-30T11:29:04;6.40;;;1.92;;
53971;SDS011;40530;53.062;6.078;2024-01-30T11:31:33;4.88;;;1.58;;
53971;SDS011;40530;53.062;6.078;2024-01-30T11:33:59;8.25;;;0.95;;
53971;SDS011;40530;53.062;6.078;2024-01-30T11:36:26;4.68;;;0.63;;
53971;SDS011;40530;53.062;6.078;2024-01-30T11:38:52;4.85;;;1.00;;
53971;SDS011;40530;53.062;6.078;2024-01-30T11:41:19;5.45;;;0.90;;
53971;SDS011;40530;53.062;6.078;2024-01-30T11:43:55;5.95;;;0.95;;
53971;SDS011;40530;53.062;6.078;2024-01-30T11:46:21;9.68;;;1.42;;
53971;SDS011;40530;53.062;6.078;2024-01-30T11:48:47;3.63;;;1.58;;
53971;SDS011;40530;53.062;6.078;2024-01-30T11:51:13;7.38;;;1.23;;
53971;SDS011;40530;53.062;6.078;2024-01-30T11:53:39;6.43;;;1.50;;
53971;SDS011;40530;53.062;6.078;2024-01-30T11:56:06;4.43;;;1.17;;
53971;SDS011;40530;53.062;6.078;2024-01-30T11:58:33;5.63;;;1.38;;
53971;SDS011;40530;53.062;6.078;2024-01-30T12:00:59;9.63;;;1.52;;
53971;SDS011;40530;53.062;6.078;2024-01-30T12:03:25;6.18;;;1.30;;
53971;SDS011;40530;53.062;6.078;2024-01-30T12:05:55;4.95;;;1.60;;
53971;SDS011;40530;53.062;6.078;2024-01-30T12:08:22;7.32;;;1.90;;
53971;SDS011;40530;53.062;6.078;2024-01-30T12:10:55;12.35;;;3.10;;
53971;SDS011;40530;53.062;6.078;2024-01-30T12:13:22;7.20;;;1.67;;
53971;SDS011;40530;53.062;6.078;2024-01-30T12:15:48;14.55;;;2.20;;
53971;SDS011;40530;53.062;6.078;2024-01-30T12:18:14;7.20;;;1.60;;
53971;SDS011;40530;53.062;6.078;2024-01-30T12:20:44;11.73;;;3.00;;
53971;SDS011;40530;53.062;6.078;2024-01-30T12:23:13;8.57;;;2.75;;
53971;SDS011;40530;53.062;6.078;2024-01-30T12:25:39;3.30;;;1.45;;
53971;SDS011;40530;53.062;6.078;2024-01-30T12:28:06;7.93;;;2.15;;
53971;SDS011;40530;53.062;6.078;2024-01-30T12:30:32;6.20;;;1.27;;
53971;SDS011;40530;53.062;6.078;2024-01-30T12:33:01;7.80;;;2.13;;
53971;SDS011;40530;53.062;6.078;2024-01-30T12:35:29;5.47;;;1.02;;
53971;SDS011;40530;53.062;6.078;2024-01-30T12:37:55;6.75;;;1.85;;
53971;SDS011;40530;53.062;6.078;2024-01-30T12:40:21;4.20;;;1.00;;
53971;SDS011;40530;53.062;6.078;2024-01-30T12:42:49;5.03;;;1.60;;
53971;SDS011;40530;53.062;6.078;2024-01-30T12:45:15;8.70;;;1.67;;
53971;SDS011;40530;53.062;6.078;2024-01-30T12:47:45;8.90;;;1.30;;
53971;SDS011;40530;53.062;6.078;2024-01-30T12:50:11;4.90;;;0.95;;
53971;SDS011;40530;53.062;6.078;2024-01-30T12:52:37;3.38;;;1.30;;
53971;SDS011;40530;53.062;6.078;2024-01-30T12:55:03;3.70;;;1.02;;
53971;SDS011;40530;53.062;6.078;2024-01-30T12:57:29;3.25;;;0.95;;
53971;SDS011;40530;53.062;6.078;2024-01-30T12:59:56;3.50;;;0.73;;
53971;SDS011;40530;53.062;6.078;2024-01-30T13:02:22;7.85;;;2.08;;
53971;SDS011;40530;53.062;6.078;2024-01-30T13:04:48;7.55;;;1.20;;
53971;SDS011;40530;53.062;6.078;2024-01-30T13:07:14;4.88;;;0.98;;
53971;SDS011;40530;53.062;6.078;2024-01-30T13:09:40;3.58;;;1.35;;
53971;SDS011;40530;53.062;6.078;2024-01-30T13:12:06;6.78;;;1.20;;
53971;SDS011;40530;53.062;6.078;2024-01-30T13:14:32;7.28;;;0.80;;
53971;SDS011;40530;53.062;6.078;2024-01-30T13:16:58;3.03;;;0.88;;
53971;SDS011;40530;53.062;6.078;2024-01-30T13:19:25;2.78;;;0.80;;
53971;SDS011;40530;53.062;6.078;2024-01-30T13:21:52;4.18;;;0.80;;
53971;SDS011;40530;53.062;6.078;2024-01-30T13:24:18;4.57;;;1.00;;
53971;SDS011;40530;53.062;6.078;2024-01-30T13:26:46;3.40;;;0.80;;
53971;SDS011;40530;53.062;6.078;2024-01-30T13:29:13;10.85;;;2.20;;
53971;SDS011;40530;53.062;6.078;2024-01-30T13:31:39;6.72;;;1.67;;
53971;SDS011;40530;53.062;6.078;2024-01-30T13:34:06;3.53;;;1.00;;
53971;SDS011;40530;53.062;6.078;2024-01-30T13:36:32;5.85;;;0.90;;
53971;SDS011;40530;53.062;6.078;2024-01-30T13:38:58;3.13;;;0.90;;
53971;SDS011;40530;53.062;6.078;2024-01-30T13:41:24;3.47;;;0.95;;
53971;SDS011;40530;53.062;6.078;2024-01-30T13:43:50;5.50;;;1.10;;
53971;SDS011;40530;53.062;6.078;2024-01-30T13:46:16;5.20;;;1.30;;
53971;SDS011;40530;53.062;6.078;2024-01-30T13:48:42;5.95;;;1.42;;
53971;SDS011;40530;53.062;6.078;2024-01-30T13:51:08;5.38;;;1.23;;
53971;SDS011;40530;53.062;6.078;2024-01-30T13:53:35;6.82;;;0.90;;
53971;SDS011;40530;53.062;6.078;2024-01-30T13:56:02;5.57;;;1.30;;
53971;SDS011;40530;53.062;6.078;2024-01-30T13:58:28;3.58;;;1.10;;
53971;SDS011;40530;53.062;6.078;2024-01-30T14:00:54;7.18;;;1.98;;
53971;SDS011;40530;53.062;6.078;2024-01-30T14:03:20;7.05;;;1.80;;
53971;SDS011;40530;53.062;6.078;2024-01-30T14:05:46;6.32;;;1.85;;
53971;SDS011;40530;53.062;6.078;2024-01-30T14:08:12;9.65;;;2.80;;
53971;SDS011;40530;53.062;6.078;2024-01-30T14:10:38;7.68;;;1.63;;
53971;SDS011;40530;53.062;6.078;2024-01-30T14:13:04;11.10;;;3.35;;
53971;SDS011;40530;53.062;6.078;2024-01-30T14:15:30;7.35;;;2.00;;
53971;SDS011;40530;53.062;6.078;2024-01-30T14:17:56;9.07;;;2.30;;
53971;SDS011;40530;53.062;6.078;2024-01-30T14:20:22;6.53;;;2.50;;
53971;SDS011;40530;53.062;6.078;2024-01-30T14:22:48;7.10;;;2.88;;
53971;SDS011;40530;53.062;6.078;2024-01-30T14:25:14;10.70;;;2.38;;
53971;SDS011;40530;53.062;6.078;2024-01-30T14:27:41;13.05;;;3.17;;
53971;SDS011;40530;53.062;6.078;2024-01-30T14:30:09;9.07;;;1.98;;
53971;SDS011;40530;53.062;6.078;2024-01-30T14:32:36;8.73;;;2.50;;